createdAt,value
2022-12-03T00:00:25.969Z,89.38
2022-12-03T00:02:52.455Z,88.96
2022-12-03T00:05:18.949Z,89.24
2022-12-03T00:07:45.548Z,89.68
2022-12-03T00:10:12.222Z,89.87
2022-12-03T00:12:38.562Z,89.21
2022-12-03T00:15:06.488Z,89.75
2022-12-03T00:17:33.008Z,90.09
2022-12-03T00:19:59.370Z,90.47
2022-12-03T00:22:25.806Z,90.33
2022-12-03T00:24:52.397Z,90.44
2022-12-03T00:27:18.882Z,90.37
2022-12-03T00:29:45.856Z,90.37
2022-12-03T00:32:13.900Z,90.80
2022-12-03T00:34:40.353Z,90.79
2022-12-03T00:37:06.733Z,90.59
2022-12-03T00:39:33.104Z,91.28
2022-12-03T00:41:59.611Z,90.84
2022-12-03T00:44:26.121Z,90.82
2022-12-03T00:46:52.536Z,90.92
2022-12-03T00:49:18.995Z,90.62
2022-12-03T00:51:45.353Z,90.34
2022-12-03T00:54:11.882Z,90.68
2022-12-03T00:56:38.217Z,90.43
2022-12-03T00:59:04.552Z,90.45
2022-12-03T01:01:30.962Z,90.60
2022-12-03T01:03:57.401Z,90.98
2022-12-03T01:06:23.820Z,90.67
2022-12-03T01:08:50.156Z,91.45
2022-12-03T01:11:35.217Z,91.61
2022-12-03T01:14:01.624Z,91.43
2022-12-03T01:16:28.067Z,91.52
2022-12-03T01:18:54.575Z,91.37
2022-12-03T01:21:20.972Z,92.02
2022-12-03T01:23:47.338Z,91.41
2022-12-03T01:26:13.816Z,92.05
2022-12-03T01:28:41.933Z,91.32
2022-12-03T01:31:27.407Z,91.44
2022-12-03T01:33:53.870Z,91.72
2022-12-03T01:36:20.223Z,92.35
2022-12-03T01:38:46.580Z,91.99
2022-12-03T01:41:12.937Z,91.84
2022-12-03T01:43:39.367Z,91.79
2022-12-03T01:46:06.161Z,92.39
2022-12-03T01:48:35.499Z,91.66
2022-12-03T01:51:02.084Z,92.50
2022-12-03T01:53:28.443Z,92.07
2022-12-03T01:55:55.296Z,91.94
2022-12-03T01:58:28.626Z,92.11
2022-12-03T02:00:56.721Z,91.93
2022-12-03T02:03:25.682Z,92.11
2022-12-03T02:05:52.338Z,92.57
2022-12-03T02:08:37.381Z,92.19
2022-12-03T02:11:16.630Z,92.52
2022-12-03T02:13:44.070Z,92.79
2022-12-03T02:16:10.606Z,92.94
2022-12-03T02:18:37.070Z,92.83
2022-12-03T02:21:16.567Z,92.79
2022-12-03T02:23:58.167Z,93.01
2022-12-03T02:26:24.770Z,93.31
2022-12-03T02:28:51.135Z,92.95
2022-12-03T02:31:17.639Z,92.68
2022-12-03T02:33:44.495Z,92.62
2022-12-03T02:36:11.891Z,92.76
2022-12-03T02:38:38.870Z,92.53
2022-12-03T02:41:09.084Z,93.03
2022-12-03T02:43:36.126Z,93.15
2022-12-03T02:46:04.597Z,93.14
2022-12-03T02:48:39.243Z,93.17
2022-12-03T02:51:09.180Z,92.84
2022-12-03T02:53:42.146Z,93.23
2022-12-03T02:56:09.185Z,93.07
2022-12-03T02:58:35.766Z,93.18
2022-12-03T03:01:03.735Z,92.83
2022-12-03T03:03:31.880Z,92.74
2022-12-03T03:06:01.134Z,92.76
2022-12-03T03:08:28.810Z,92.92
2022-12-03T03:10:56.707Z,92.72
2022-12-03T03:13:23.320Z,92.96
2022-12-03T03:15:49.734Z,93.09
2022-12-03T03:18:16.636Z,92.79
2022-12-03T03:20:43.946Z,93.02
2022-12-03T03:23:17.691Z,92.66
2022-12-03T03:25:47.685Z,93.05
2022-12-03T03:28:15.295Z,93.05
2022-12-03T03:30:43.773Z,93.01
2022-12-03T03:33:11.212Z,92.54
2022-12-03T03:35:38.423Z,92.28
2022-12-03T03:38:06.676Z,92.52
2022-12-03T03:40:33.311Z,92.36
2022-12-03T03:43:00.787Z,92.59
2022-12-03T03:45:29.588Z,92.32
2022-12-03T03:47:57.940Z,92.56
2022-12-03T03:50:25.481Z,92.47
2022-12-03T03:52:52.084Z,92.42
2022-12-03T03:55:20.351Z,92.43
2022-12-03T03:57:48.204Z,92.68
2022-12-03T04:00:15.354Z,92.84
2022-12-03T04:02:41.978Z,92.56
2022-12-03T04:05:15.461Z,92.43
2022-12-03T04:07:41.872Z,93.22
2022-12-03T04:10:27.883Z,93.63
2022-12-03T04:12:56.917Z,93.57
2022-12-03T04:15:24.532Z,92.90
2022-12-03T04:18:10.419Z,93.16
2022-12-03T04:20:37.945Z,92.20
2022-12-03T04:23:05.114Z,92.31
2022-12-03T04:25:50.218Z,92.17
2022-12-03T04:28:35.565Z,92.38
2022-12-03T04:31:22.089Z,91.57
2022-12-03T04:34:07.236Z,91.88
2022-12-03T04:36:33.642Z,91.50
2022-12-03T04:39:00.045Z,90.83
2022-12-03T04:41:26.402Z,91.78
2022-12-03T04:44:11.486Z,90.79
2022-12-03T04:46:37.844Z,91.40
2022-12-03T04:49:04.291Z,91.25
2022-12-03T04:51:30.635Z,90.87
2022-12-03T04:53:57.003Z,90.34
2022-12-03T04:56:23.437Z,90.56
2022-12-03T04:58:49.794Z,91.95
2022-12-03T05:01:16.185Z,91.28
2022-12-03T05:03:42.556Z,91.16
2022-12-03T05:06:08.938Z,91.49
2022-12-03T05:08:35.297Z,91.80
2022-12-03T05:11:01.670Z,92.38
2022-12-03T05:13:28.074Z,92.42
2022-12-03T05:15:54.417Z,92.41
2022-12-03T05:18:20.847Z,92.42
2022-12-03T05:20:53.167Z,93.00
2022-12-03T05:23:20.610Z,92.64
2022-12-03T05:25:47.233Z,92.90
2022-12-03T05:28:13.604Z,93.02
2022-12-03T05:30:40.369Z,93.06
2022-12-03T05:33:06.868Z,93.49
2022-12-03T05:35:33.407Z,93.37
2022-12-03T05:37:59.763Z,93.14
2022-12-03T05:40:26.103Z,92.75
2022-12-03T05:42:56.750Z,92.88
2022-12-03T05:45:23.376Z,93.66
2022-12-03T05:47:49.746Z,93.34
2022-12-03T05:50:16.245Z,93.31
2022-12-03T05:52:46.743Z,93.44
2022-12-03T05:55:13.785Z,92.85
2022-12-03T05:57:40.184Z,92.46
2022-12-03T06:00:12.603Z,92.76
2022-12-03T06:02:39.102Z,92.40
2022-12-03T06:05:07.690Z,91.78
2022-12-03T06:07:37.674Z,92.22
2022-12-03T06:10:11.399Z,91.91
2022-12-03T06:12:37.840Z,92.10
2022-12-03T06:15:05.120Z,92.22
2022-12-03T06:17:31.667Z,92.26
2022-12-03T06:19:58.056Z,92.42
2022-12-03T06:22:24.508Z,91.94
2022-12-03T06:24:51.089Z,92.10
2022-12-03T06:27:17.990Z,91.79
2022-12-03T06:29:46.468Z,92.05
2022-12-03T06:32:12.819Z,92.18
2022-12-03T06:34:39.296Z,91.62
2022-12-03T06:37:05.664Z,92.04
2022-12-03T06:39:32.024Z,92.01
2022-12-03T06:41:58.485Z,90.75
2022-12-03T06:44:24.902Z,90.86
2022-12-03T06:46:51.325Z,91.11
2022-12-03T06:49:17.905Z,91.00
2022-12-03T06:51:44.431Z,90.44
2022-12-03T06:54:10.793Z,90.50
2022-12-03T06:56:43.515Z,90.43
2022-12-03T06:59:12.171Z,90.60
2022-12-03T07:01:38.656Z,89.93
2022-12-03T07:04:05.242Z,90.96
2022-12-03T07:06:31.725Z,90.47
2022-12-03T07:08:58.111Z,90.07
2022-12-03T07:11:39.588Z,90.48
2022-12-03T07:14:07.864Z,89.50
2022-12-03T07:16:38.241Z,89.39
2022-12-03T07:19:06.428Z,89.34
2022-12-03T07:21:33.118Z,89.54
2022-12-03T07:23:59.513Z,89.91
2022-12-03T07:26:26.025Z,89.98
2022-12-03T07:28:52.369Z,90.04
2022-12-03T07:31:18.840Z,90.27
2022-12-03T07:33:45.232Z,90.27
2022-12-03T07:36:11.674Z,90.16
2022-12-03T07:38:38.090Z,90.77
2022-12-03T07:41:04.537Z,90.00
2022-12-03T07:43:30.984Z,90.11
2022-12-03T07:45:57.394Z,90.43
2022-12-03T07:48:23.806Z,90.48
2022-12-03T07:50:50.202Z,90.39
2022-12-03T07:53:16.642Z,90.76
2022-12-03T07:55:43.026Z,90.21
2022-12-03T07:58:09.585Z,90.10
2022-12-03T08:00:36.074Z,90.50
2022-12-03T08:03:02.524Z,90.82
2022-12-03T08:05:29.912Z,90.63
2022-12-03T08:07:56.621Z,90.51
2022-12-03T08:10:25.360Z,90.66
2022-12-03T08:12:51.841Z,90.54
2022-12-03T08:15:20.866Z,91.24
2022-12-03T08:17:54.195Z,92.10
2022-12-03T08:20:23.531Z,91.77
2022-12-03T08:22:51.849Z,90.98
2022-12-03T08:25:25.475Z,91.91
2022-12-03T08:27:56.452Z,91.68
2022-12-03T08:30:23.475Z,92.43
2022-12-03T08:32:51.443Z,92.86
2022-12-03T08:35:27.329Z,93.27
2022-12-03T08:38:11.968Z,92.49
2022-12-03T08:40:43.658Z,92.92
2022-12-03T08:43:24.920Z,92.72
2022-12-03T08:45:53.690Z,92.35
2022-12-03T08:48:32.608Z,92.93
2022-12-03T08:51:21.070Z,92.40
2022-12-03T08:53:50.055Z,92.84
2022-12-03T08:56:24.897Z,92.86
2022-12-03T08:58:58.493Z,92.26
2022-12-03T09:01:35.099Z,92.91
2022-12-03T09:04:57.233Z,92.29
2022-12-03T09:07:23.582Z,91.79
2022-12-03T09:09:49.930Z,92.55
2022-12-03T09:12:16.335Z,92.72
2022-12-03T09:14:42.702Z,92.61
2022-12-03T09:17:09.122Z,92.11
2022-12-03T09:19:35.603Z,92.26
2022-12-03T09:22:01.961Z,93.15
2022-12-03T09:24:28.420Z,92.09
2022-12-03T09:26:54.754Z,91.99
2022-12-03T09:29:21.143Z,91.89
2022-12-03T09:31:47.603Z,91.69
2022-12-03T09:34:14.067Z,92.27
2022-12-03T09:36:40.697Z,91.07
2022-12-03T09:39:07.063Z,91.68
2022-12-03T09:41:33.581Z,90.79
2022-12-03T09:44:04.741Z,91.19
2022-12-03T09:46:32.493Z,90.41
2022-12-03T09:48:58.959Z,90.49
2022-12-03T09:51:32.428Z,88.87
2022-12-03T09:54:01.048Z,88.90
2022-12-03T09:56:27.400Z,89.05
2022-12-03T09:58:54.407Z,89.13
2022-12-03T10:01:20.976Z,88.20
2022-12-03T10:03:50.663Z,88.79
2022-12-03T10:06:23.336Z,88.37
2022-12-03T10:08:53.487Z,88.14
2022-12-03T10:11:22.427Z,87.85
2022-12-03T10:13:48.918Z,87.76
2022-12-03T10:16:18.109Z,87.35
2022-12-03T10:18:48.314Z,88.15
2022-12-03T10:21:17.873Z,87.67
2022-12-03T10:23:49.549Z,87.68
2022-12-03T10:26:18.624Z,88.78
2022-12-03T10:28:47.554Z,89.42
2022-12-03T10:31:14.722Z,89.84
2022-12-03T10:33:44.782Z,89.75
2022-12-03T10:36:23.578Z,90.18
2022-12-03T10:39:16.671Z,89.84
2022-12-03T10:41:44.553Z,89.48
2022-12-03T10:44:25.463Z,89.65
2022-12-03T10:47:06.953Z,89.02
2022-12-03T10:49:33.558Z,89.00
2022-12-03T10:52:00.149Z,89.61
2022-12-03T10:54:28.250Z,88.87
2022-12-03T10:56:54.611Z,88.90
2022-12-03T10:59:24.034Z,88.97
2022-12-03T11:01:51.460Z,88.49
2022-12-03T11:04:30.667Z,89.41
2022-12-03T11:06:57.151Z,88.84
2022-12-03T11:09:29.769Z,88.63
2022-12-03T11:12:02.681Z,89.37
2022-12-03T11:14:51.938Z,88.94
2022-12-03T11:17:41.607Z,89.44
2022-12-03T11:20:22.802Z,89.15
2022-12-03T11:22:51.153Z,89.42
2022-12-03T11:25:26.778Z,89.26
2022-12-03T11:28:11.828Z,89.50
2022-12-03T11:30:53.584Z,90.14
2022-12-03T11:33:22.980Z,89.46
2022-12-03T11:36:04.579Z,89.18
2022-12-03T11:38:37.000Z,88.82
2022-12-03T11:41:21.743Z,88.65
2022-12-03T11:43:57.127Z,88.46
2022-12-03T11:46:25.495Z,87.89
2022-12-03T11:48:54.660Z,88.49
2022-12-03T11:51:23.441Z,88.41
2022-12-03T11:53:51.203Z,87.99
2022-12-03T11:56:22.571Z,88.22
2022-12-03T11:58:56.936Z,88.57
2022-12-03T12:01:40.007Z,88.68
2022-12-03T12:04:08.639Z,87.44
2022-12-03T12:06:44.519Z,88.02
2022-12-03T12:09:10.948Z,87.26
2022-12-03T12:11:41.378Z,87.64
2022-12-03T12:14:12.084Z,87.61
2022-12-03T12:16:52.099Z,87.84
2022-12-03T12:19:31.833Z,88.12
2022-12-03T12:22:27.310Z,88.09
2022-12-03T12:24:53.710Z,88.02
2022-12-03T12:27:39.136Z,88.64
2022-12-03T12:30:19.696Z,88.55
2022-12-03T12:32:48.980Z,88.44
2022-12-03T12:35:21.325Z,88.15
2022-12-03T12:37:59.183Z,89.22
2022-12-03T12:40:29.914Z,88.96
2022-12-03T12:43:08.211Z,89.55
2022-12-03T12:45:39.138Z,89.61
2022-12-03T12:48:14.518Z,90.06
2022-12-03T12:50:42.787Z,90.77
2022-12-03T12:53:26.569Z,91.33
2022-12-03T12:55:59.399Z,90.94
2022-12-03T12:58:28.245Z,91.88
2022-12-03T13:00:57.932Z,92.40
2022-12-03T13:03:32.643Z,91.64
2022-12-03T13:05:59.095Z,91.99
2022-12-03T13:08:29.367Z,92.26
2022-12-03T13:11:02.953Z,91.22
2022-12-03T13:13:44.655Z,91.62
2022-12-03T13:16:22.508Z,92.07
2022-12-03T13:18:53.929Z,92.67
2022-12-03T13:21:32.432Z,92.50
2022-12-03T13:23:59.008Z,92.42
2022-12-03T13:26:38.822Z,92.67
2022-12-03T13:29:11.822Z,92.90
2022-12-03T13:31:43.400Z,93.47
2022-12-03T13:34:19.374Z,93.64
2022-12-03T13:36:51.935Z,94.24
2022-12-03T13:39:28.079Z,94.46
2022-12-03T13:42:13.675Z,94.96
2022-12-03T13:44:46.178Z,95.24
2022-12-03T13:47:15.793Z,94.95
2022-12-03T13:49:49.125Z,94.32
2022-12-03T13:52:20.371Z,94.57
2022-12-03T13:54:50.681Z,94.93
2022-12-03T13:57:17.040Z,94.84
2022-12-03T13:59:43.505Z,95.55
2022-12-03T14:02:10.101Z,94.91
2022-12-03T14:04:36.778Z,95.14
2022-12-03T14:07:03.102Z,93.97
2022-12-03T14:09:29.517Z,94.59
2022-12-03T14:12:14.296Z,94.80
2022-12-03T14:14:40.642Z,93.98
2022-12-03T14:17:09.445Z,94.05
2022-12-03T14:19:35.966Z,93.90
2022-12-03T14:22:02.579Z,93.77
2022-12-03T14:24:28.910Z,94.12
2022-12-03T14:26:55.235Z,94.72
2022-12-03T14:29:21.693Z,93.30
2022-12-03T14:31:48.039Z,93.62
2022-12-03T14:34:14.398Z,93.39
2022-12-03T14:36:40.838Z,93.12
2022-12-03T14:39:07.206Z,92.72
2022-12-03T14:41:52.309Z,92.03
2022-12-03T14:44:21.702Z,92.50
2022-12-03T14:46:49.745Z,92.25
2022-12-03T14:49:18.027Z,91.42
2022-12-03T14:51:44.376Z,91.92
2022-12-03T14:54:10.800Z,91.04
2022-12-03T14:56:37.131Z,90.94
2022-12-03T14:59:03.559Z,90.60
2022-12-03T15:01:29.951Z,90.89
2022-12-03T15:03:56.341Z,90.84
2022-12-03T15:06:22.705Z,90.83
2022-12-03T15:08:49.211Z,90.83
2022-12-03T15:11:15.783Z,90.68
2022-12-03T15:13:42.127Z,90.59
2022-12-03T15:16:08.701Z,90.93
2022-12-03T15:18:35.150Z,90.41
2022-12-03T15:21:01.872Z,90.70
2022-12-03T15:23:28.363Z,91.33
2022-12-03T15:25:54.777Z,90.71
2022-12-03T15:28:23.064Z,90.50
2022-12-03T15:30:50.067Z,90.98
2022-12-03T15:33:16.570Z,91.49
2022-12-03T15:35:44.162Z,91.64
2022-12-03T15:38:11.326Z,91.61
2022-12-03T15:40:38.554Z,91.45
2022-12-03T15:43:08.423Z,91.79
2022-12-03T15:45:35.455Z,92.58
2022-12-03T15:48:02.084Z,92.90
2022-12-03T15:50:28.921Z,92.57
2022-12-03T15:52:55.565Z,92.88
2022-12-03T15:55:21.996Z,92.69
2022-12-03T15:57:49.244Z,92.62
2022-12-03T16:00:16.570Z,92.41
2022-12-03T16:02:47.518Z,92.57
2022-12-03T16:05:17.404Z,92.99
2022-12-03T16:07:43.842Z,92.80
2022-12-03T16:10:11.181Z,92.26
2022-12-03T16:12:37.645Z,92.22
2022-12-03T16:15:04.528Z,92.18
2022-12-03T16:17:30.900Z,92.68
2022-12-03T16:19:57.365Z,92.59
2022-12-03T16:22:23.949Z,92.82
2022-12-03T16:24:50.283Z,92.97
2022-12-03T16:27:16.626Z,93.10
2022-12-03T16:29:42.971Z,92.99
2022-12-03T16:32:09.316Z,92.74
2022-12-03T16:34:35.656Z,92.82
2022-12-03T16:37:02.007Z,92.83
2022-12-03T16:39:28.365Z,92.94
2022-12-03T16:41:54.711Z,92.92
2022-12-03T16:44:32.301Z,93.03
2022-12-03T16:47:01.835Z,92.45
2022-12-03T16:49:28.262Z,92.45
2022-12-03T16:51:54.748Z,92.97
2022-12-03T16:54:21.126Z,92.72
2022-12-03T16:56:47.502Z,93.01
2022-12-03T16:59:13.821Z,93.39
2022-12-03T17:01:40.220Z,92.92
2022-12-03T17:04:06.685Z,93.58
2022-12-03T17:06:33.081Z,92.96
2022-12-03T17:08:59.430Z,93.48
2022-12-03T17:11:25.803Z,93.63
2022-12-03T17:13:52.150Z,93.44
2022-12-03T17:16:18.679Z,92.71
2022-12-03T17:18:45.087Z,93.02
2022-12-03T17:21:11.501Z,93.07
2022-12-03T17:23:37.856Z,93.19
2022-12-03T17:26:04.295Z,93.06
2022-12-03T17:28:30.630Z,93.98
2022-12-03T17:30:57.050Z,93.71
2022-12-03T17:33:23.462Z,93.58
2022-12-03T17:35:49.848Z,93.32
2022-12-03T17:38:16.379Z,93.72
2022-12-03T17:40:45.114Z,93.72
2022-12-03T17:43:11.476Z,93.74
2022-12-03T17:45:37.939Z,94.08
2022-12-03T17:48:04.493Z,94.00
2022-12-03T17:50:30.877Z,94.12
2022-12-03T17:52:57.902Z,93.75
2022-12-03T17:55:33.837Z,93.77
2022-12-03T17:58:05.906Z,93.93
2022-12-03T18:00:33.413Z,94.65
2022-12-03T18:02:59.855Z,94.02
2022-12-03T18:05:26.253Z,94.08
2022-12-03T18:07:52.690Z,93.61
2022-12-03T18:10:19.215Z,93.96
2022-12-03T18:12:45.557Z,94.56
2022-12-03T18:15:11.932Z,93.31
2022-12-03T18:17:38.270Z,93.19
2022-12-03T18:20:05.386Z,93.94
2022-12-03T18:22:31.877Z,93.97
2022-12-03T18:24:58.454Z,93.76
2022-12-03T18:27:25.218Z,94.14
2022-12-03T18:29:51.811Z,93.93
2022-12-03T18:32:28.947Z,93.87
2022-12-03T18:34:56.858Z,93.67
2022-12-03T18:37:26.960Z,92.71
2022-12-03T18:39:53.835Z,93.10
2022-12-03T18:42:21.996Z,92.78
2022-12-03T18:44:50.219Z,93.12
2022-12-03T18:47:19.402Z,93.09
2022-12-03T18:49:46.059Z,93.64
2022-12-03T18:52:14.081Z,93.43
2022-12-03T18:54:40.486Z,93.33
2022-12-03T18:57:06.874Z,92.46
2022-12-03T18:59:33.442Z,92.33
2022-12-03T19:01:59.962Z,92.75
2022-12-03T19:04:26.428Z,93.08
2022-12-03T19:06:53.245Z,92.36
2022-12-03T19:09:19.743Z,92.61
2022-12-03T19:11:46.227Z,92.68
2022-12-03T19:14:12.811Z,92.20
2022-12-03T19:16:40.237Z,92.67
2022-12-03T19:19:07.899Z,92.31
2022-12-03T19:21:35.025Z,91.83
2022-12-03T19:24:23.843Z,91.99
2022-12-03T19:26:48.690Z,92.16
2022-12-03T19:29:15.369Z,91.80
2022-12-03T19:31:41.833Z,91.41
2022-12-03T19:34:08.386Z,91.08
2022-12-03T19:36:34.786Z,92.01
2022-12-03T19:39:01.492Z,92.06
2022-12-03T19:41:30.587Z,90.89
2022-12-03T19:43:57.537Z,91.77
2022-12-03T19:46:26.291Z,90.86
2022-12-03T19:48:54.822Z,90.76
2022-12-03T19:51:34.321Z,91.18
2022-12-03T19:54:02.439Z,91.16
2022-12-03T19:56:30.280Z,91.07
2022-12-03T19:58:57.737Z,91.24
2022-12-03T20:01:27.655Z,91.88
2022-12-03T20:03:56.164Z,91.05
2022-12-03T20:06:25.950Z,91.62
2022-12-03T20:09:00.392Z,91.38
2022-12-03T20:11:29.605Z,91.01
2022-12-03T20:14:00.941Z,90.42
2022-12-03T20:16:28.351Z,90.62
2022-12-03T20:19:00.839Z,91.38
2022-12-03T20:21:30.163Z,91.31
2022-12-03T20:23:56.555Z,91.14
2022-12-03T20:26:23.234Z,91.34
2022-12-03T20:28:50.007Z,90.76
2022-12-03T20:31:19.497Z,90.97
2022-12-03T20:33:48.408Z,90.32
2022-12-03T20:36:16.686Z,90.58
2022-12-03T20:38:43.285Z,91.19
2022-12-03T20:41:12.527Z,91.77
2022-12-03T20:43:38.976Z,91.45
2022-12-03T20:46:29.180Z,90.84
2022-12-03T20:48:56.088Z,91.58
2022-12-03T20:51:25.282Z,91.60
2022-12-03T20:53:52.039Z,90.67
2022-12-03T20:56:27.244Z,90.56
2022-12-03T20:58:53.882Z,90.37
2022-12-03T21:01:21.915Z,90.95
2022-12-03T21:03:49.434Z,90.56
2022-12-03T21:06:16.245Z,90.51
2022-12-03T21:08:43.661Z,90.42
2022-12-03T21:11:14.031Z,90.55
2022-12-03T21:13:44.014Z,90.90
2022-12-03T21:16:13.497Z,91.07
2022-12-03T21:18:40.209Z,91.75
2022-12-03T21:21:07.167Z,90.86
2022-12-03T21:23:34.751Z,90.73
2022-12-03T21:26:05.876Z,91.39
2022-12-03T21:28:32.603Z,90.68
2022-12-03T21:31:04.475Z,90.52
2022-12-03T21:33:31.576Z,90.04
2022-12-03T21:35:59.015Z,90.17
2022-12-03T21:38:26.828Z,90.53
2022-12-03T21:40:53.663Z,90.82
2022-12-03T21:43:20.243Z,90.43
2022-12-03T21:45:46.951Z,91.47
2022-12-03T21:48:13.716Z,91.06
2022-12-03T21:50:42.202Z,90.63
2022-12-03T21:53:09.228Z,90.51
2022-12-03T21:55:38.975Z,90.71
2022-12-03T21:58:05.326Z,90.53
2022-12-03T22:00:31.732Z,90.93
2022-12-03T22:02:58.200Z,91.21
2022-12-03T22:05:24.617Z,90.51
2022-12-03T22:07:51.011Z,91.14
2022-12-03T22:10:17.688Z,91.01
2022-12-03T22:12:44.079Z,90.87
2022-12-03T22:15:16.567Z,90.83
2022-12-03T22:17:44.972Z,91.04
2022-12-03T22:20:11.842Z,91.01
2022-12-03T22:22:38.165Z,90.93
2022-12-03T22:25:04.826Z,91.28
2022-12-03T22:27:31.214Z,91.64
2022-12-03T22:29:57.713Z,91.69
2022-12-03T22:32:24.403Z,91.06
2022-12-03T22:34:50.754Z,91.52
2022-12-03T22:37:17.170Z,92.19
2022-12-03T22:39:43.592Z,91.81
2022-12-03T22:42:10.056Z,91.08
2022-12-03T22:44:36.438Z,91.50
2022-12-03T22:47:03.009Z,91.44
2022-12-03T22:49:29.494Z,91.70
2022-12-03T22:51:55.860Z,91.71
2022-12-03T22:54:24.067Z,91.48
2022-12-03T22:56:50.815Z,91.47
2022-12-03T22:59:17.322Z,92.20
2022-12-03T23:01:43.766Z,91.76
2022-12-03T23:04:10.901Z,91.74
2022-12-03T23:06:38.343Z,92.35
2022-12-03T23:09:06.474Z,91.64
2022-12-03T23:11:32.904Z,92.27
2022-12-03T23:13:59.562Z,92.62
2022-12-03T23:16:29.051Z,91.86
2022-12-03T23:18:57.695Z,92.61
2022-12-03T23:21:29.915Z,91.82
2022-12-03T23:24:01.312Z,92.18
2022-12-03T23:26:28.670Z,92.35
2022-12-03T23:28:56.084Z,92.29
2022-12-03T23:31:26.216Z,91.96
2022-12-03T23:33:53.361Z,91.72
2022-12-03T23:36:21.181Z,91.71
2022-12-03T23:38:47.762Z,91.91
2022-12-03T23:41:18.106Z,91.82
2022-12-03T23:43:44.547Z,91.86
2022-12-03T23:46:13.935Z,92.50
2022-12-03T23:48:40.985Z,92.52
2022-12-03T23:51:12.737Z,91.85
2022-12-03T23:53:40.198Z,91.79
2022-12-03T23:56:12.051Z,92.08
2022-12-03T23:58:38.628Z,92.55
